Time;durP1;ratioP1;P1;durP2;ratioP2;P2;SDS_P1;SDS_P2;PMS_P1;PMS_P2;Temp;Humidity;BMP_temperature;BMP_pressure;BME280_temperature;BME280_humidity;BME280_pressure;Samples;Min_cycle;Max_cycle;Signal;HPM_P1;HPM_P2
2024/03/10 00:00:43;;;;;;;11.15;6.63;;;;;;;;;;5004516;28;20226;-49
2024/03/10 00:03:10;;;;;;;10.35;5.90;;;;;;;;;;5005945;28;20209;-49
2024/03/10 00:05:38;;;;;;;9.50;5.25;;;;;;;;;;5006247;28;20180;-48
2024/03/10 00:08:04;;;;;;;11.68;6.07;;;;;;;;;;4998079;28;20209;-49
2024/03/10 00:10:34;;;;;;;14.43;6.93;;;;;;;;;;5000814;28;20432;-48
2024/03/10 00:13:00;;;;;;;11.35;7.00;;;;;;;;;;5005685;28;20817;-49
2024/03/10 00:15:26;;;;;;;10.45;6.35;;;;;;;;;;5010935;28;20180;-49
2024/03/10 00:17:53;;;;;;;12.95;6.50;;;;;;;;;;5013758;28;20203;-49
2024/03/10 00:20:19;;;;;;;10.23;5.80;;;;;;;;;;5009095;28;20223;-49
2024/03/10 00:22:45;;;;;;;9.48;5.50;;;;;;;;;;5012680;28;20223;-48
2024/03/10 00:25:11;;;;;;;10.75;5.97;;;;;;;;;;5002943;28;20478;-48
2024/03/10 00:27:37;;;;;;;11.90;6.07;;;;;;;;;;5005998;28;20201;-49
2024/03/10 00:30:05;;;;;;;10.98;5.97;;;;;;;;;;5009002;28;20436;-48
2024/03/10 00:32:31;;;;;;;12.48;6.60;;;;;;;;;;5003810;28;20187;-49
2024/03/10 00:34:57;;;;;;;17.73;7.47;;;;;;;;;;5010040;28;20455;-48
2024/03/10 00:37:23;;;;;;;12.25;6.05;;;;;;;;;;5020355;28;20595;-48
2024/03/10 00:39:49;;;;;;;10.45;6.03;;;;;;;;;;5010055;28;20196;-49
2024/03/10 00:42:15;;;;;;;10.80;6.38;;;;;;;;;;5014797;28;20224;-49
2024/03/10 00:44:41;;;;;;;13.30;6.68;;;;;;;;;;5012058;28;20212;-49
2024/03/10 00:47:07;;;;;;;12.70;6.47;;;;;;;;;;5012784;28;20181;-49
2024/03/10 00:49:33;;;;;;;11.07;6.30;;;;;;;;;;5014692;28;20177;-49
2024/03/10 00:51:59;;;;;;;11.93;5.68;;;;;;;;;;5008711;28;20195;-49
2024/03/10 00:54:25;;;;;;;10.07;5.97;;;;;;;;;;5017666;28;20189;-48
2024/03/10 00:56:51;;;;;;;13.73;6.70;;;;;;;;;;5002619;28;20468;-48
2024/03/10 00:59:17;;;;;;;12.23;7.85;;;;;;;;;;5012492;28;20232;-49
2024/03/10 01:01:46;;;;;;;11.40;5.95;;;;;;;;;;5006911;28;20476;-48
2024/03/10 01:04:12;;;;;;;13.52;6.25;;;;;;;;;;5017212;28;20262;-48
2024/03/10 01:06:38;;;;;;;11.25;6.32;;;;;;;;;;5000164;28;20178;-48
2024/03/10 01:09:08;;;;;;;12.35;6.35;;;;;;;;;;5005739;28;20487;-47
2024/03/10 01:11:34;;;;;;;11.40;6.05;;;;;;;;;;5008585;28;20177;-48
2024/03/10 01:14:00;;;;;;;15.80;7.70;;;;;;;;;;5009565;28;20920;-48
2024/03/10 01:16:26;;;;;;;10.80;6.40;;;;;;;;;;4999856;28;20189;-49
2024/03/10 01:18:52;;;;;;;10.40;6.35;;;;;;;;;;5012165;28;20929;-49
2024/03/10 01:21:18;;;;;;;8.30;5.85;;;;;;;;;;5010921;28;20172;-48
2024/03/10 01:23:46;;;;;;;10.57;5.75;;;;;;;;;;5016160;28;20247;-49
2024/03/10 01:26:11;;;;;;;11.18;6.40;;;;;;;;;;5022010;28;20319;-49
2024/03/10 01:28:37;;;;;;;11.00;5.93;;;;;;;;;;5006702;28;20551;-49
2024/03/10 01:31:03;;;;;;;9.30;5.68;;;;;;;;;;5006313;28;20568;-49
2024/03/10 01:33:29;;;;;;;11.50;6.68;;;;;;;;;;5029477;28;20185;-49
2024/03/10 01:35:55;;;;;;;12.43;6.72;;;;;;;;;;5006349;28;20523;-48
2024/03/10 01:38:21;;;;;;;8.55;5.63;;;;;;;;;;5023464;28;20247;-49
2024/03/10 01:40:47;;;;;;;12.52;6.90;;;;;;;;;;5008327;28;20460;-49
2024/03/10 01:43:13;;;;;;;10.93;6.47;;;;;;;;;;5011536;28;20212;-49
2024/03/10 01:45:39;;;;;;;14.60;5.72;;;;;;;;;;5005801;28;20272;-49
2024/03/10 01:48:05;;;;;;;12.13;6.72;;;;;;;;;;5007586;28;20172;-49
2024/03/10 01:50:31;;;;;;;10.50;6.20;;;;;;;;;;5005655;28;20535;-49
2024/03/10 01:52:57;;;;;;;13.15;6.65;;;;;;;;;;5009636;28;20184;-48
2024/03/10 01:55:23;;;;;;;9.57;5.95;;;;;;;;;;5012479;28;20618;-49
2024/03/10 01:57:49;;;;;;;11.82;6.53;;;;;;;;;;5005411;28;20238;-48
2024/03/10 02:00:16;;;;;;;9.68;5.57;;;;;;;;;;5003297;28;20189;-48
2024/03/10 02:02:42;;;;;;;10.38;6.63;;;;;;;;;;5004703;28;20196;-49
2024/03/10 02:05:11;;;;;;;9.23;6.30;;;;;;;;;;5004391;28;20801;-49
2024/03/10 02:07:37;;;;;;;8.23;5.53;;;;;;;;;;5006282;28;20177;-49
2024/03/10 02:10:06;;;;;;;11.48;6.50;;;;;;;;;;5001674;28;20188;-48
2024/03/10 02:12:32;;;;;;;6.93;4.97;;;;;;;;;;5004314;28;20180;-46
2024/03/10 02:15:00;;;;;;;10.75;6.78;;;;;;;;;;5006025;28;20191;-46
2024/03/10 02:17:26;;;;;;;8.65;6.03;;;;;;;;;;5007955;28;20180;-46
2024/03/10 02:19:57;;;;;;;9.27;6.28;;;;;;;;;;5008558;28;20267;-49
2024/03/10 02:22:24;;;;;;;9.32;6.40;;;;;;;;;;5010695;28;20206;-46
2024/03/10 02:24:50;;;;;;;9.82;6.20;;;;;;;;;;5006983;28;20602;-46
2024/03/10 02:27:17;;;;;;;7.90;5.00;;;;;;;;;;5013029;28;20204;-46
2024/03/10 02:29:59;;;;;;;7.65;5.47;;;;;;;;;;5010616;28;20610;-46
2024/03/10 02:49:04;;;;;;;11.30;6.85;;;;;;;;;;5004446;28;20259;-47
2024/03/10 02:51:30;;;;;;;8.23;5.68;;;;;;;;;;5007899;28;20543;-47
2024/03/10 02:53:55;;;;;;;8.98;6.10;;;;;;;;;;5007183;28;20294;-47
2024/03/10 02:56:25;;;;;;;6.28;5.10;;;;;;;;;;5002916;28;20202;-48
2024/03/10 02:58:51;;;;;;;10.02;6.18;;;;;;;;;;5003419;28;20236;-47
2024/03/10 03:01:18;;;;;;;13.43;6.20;;;;;;;;;;5003777;28;20197;-47
2024/03/10 03:03:44;;;;;;;8.45;5.68;;;;;;;;;;4999132;28;20311;-48
2024/03/10 03:06:10;;;;;;;8.93;6.30;;;;;;;;;;4998482;28;20568;-48
2024/03/10 03:08:36;;;;;;;9.18;6.43;;;;;;;;;;5004210;28;20185;-47
2024/03/10 03:11:02;;;;;;;8.30;5.30;;;;;;;;;;5007503;28;20583;-48
2024/03/10 03:13:28;;;;;;;7.70;5.88;;;;;;;;;;5007209;28;20266;-48
2024/03/10 03:15:54;;;;;;;7.63;5.55;;;;;;;;;;5005662;28;20247;-47
2024/03/10 03:18:20;;;;;;;8.57;5.43;;;;;;;;;;5013432;28;20192;-48
2024/03/10 03:20:47;;;;;;;9.32;5.80;;;;;;;;;;5007251;28;20185;-48
2024/03/10 03:23:12;;;;;;;8.90;5.05;;;;;;;;;;5011534;28;20204;-47
2024/03/10 03:25:40;;;;;;;9.45;6.15;;;;;;;;;;5008070;28;20267;-47
2024/03/10 03:28:06;;;;;;;13.07;6.75;;;;;;;;;;5005083;28;20223;-46
2024/03/10 03:30:32;;;;;;;9.02;5.75;;;;;;;;;;5010237;28;20215;-48
2024/03/10 03:32:58;;;;;;;8.60;6.00;;;;;;;;;;5005132;28;20192;-47
2024/03/10 03:35:24;;;;;;;8.95;5.95;;;;;;;;;;5012116;28;20806;-48
2024/03/10 03:37:50;;;;;;;9.60;6.05;;;;;;;;;;5003325;28;20184;-48
2024/03/10 03:40:16;;;;;;;9.05;6.00;;;;;;;;;;5006187;28;20250;-48
2024/03/10 03:42:42;;;;;;;7.90;5.80;;;;;;;;;;5006226;28;20184;-47
2024/03/10 03:45:09;;;;;;;8.15;5.68;;;;;;;;;;5013243;28;20299;-47
2024/03/10 03:47:35;;;;;;;8.30;6.32;;;;;;;;;;5006492;28;20529;-48
2024/03/10 03:50:01;;;;;;;8.98;6.20;;;;;;;;;;5010158;28;20288;-48
2024/03/10 03:52:27;;;;;;;9.75;6.38;;;;;;;;;;5007465;28;20297;-47
2024/03/10 03:54:53;;;;;;;8.25;5.75;;;;;;;;;;5006530;28;20276;-47
2024/03/10 03:57:19;;;;;;;9.98;6.35;;;;;;;;;;5007243;28;20263;-47
2024/03/10 03:59:45;;;;;;;7.80;5.82;;;;;;;;;;5010010;28;20188;-47
2024/03/10 04:02:11;;;;;;;9.85;6.20;;;;;;;;;;5009222;28;20239;-47
2024/03/10 04:04:37;;;;;;;9.02;6.25;;;;;;;;;;5010182;28;20722;-47
2024/03/10 04:07:06;;;;;;;11.85;6.47;;;;;;;;;;5000741;28;20213;-47
2024/03/10 04:09:32;;;;;;;11.32;6.80;;;;;;;;;;5005133;28;20187;-47
2024/03/10 04:11:59;;;;;;;10.23;6.50;;;;;;;;;;5008930;28;20291;-48
2024/03/10 04:14:26;;;;;;;8.82;5.85;;;;;;;;;;5006450;28;20188;-46
2024/03/10 04:16:52;;;;;;;10.02;6.40;;;;;;;;;;5012786;28;20181;-48
2024/03/10 04:19:20;;;;;;;11.30;7.30;;;;;;;;;;5017085;28;20567;-47
2024/03/10 04:21:46;;;;;;;9.73;6.40;;;;;;;;;;5016638;28;20227;-48
2024/03/10 04:24:12;;;;;;;10.55;6.80;;;;;;;;;;5016988;28;20211;-48
2024/03/10 04:26:44;;;;;;;11.13;6.60;;;;;;;;;;5011541;28;20200;-47
2024/03/10 04:29:11;;;;;;;11.55;7.53;;;;;;;;;;5015474;28;20192;-47
2024/03/10 04:31:37;;;;;;;8.57;5.93;;;;;;;;;;5016130;28;20714;-48
2024/03/10 04:34:03;;;;;;;10.35;6.53;;;;;;;;;;5007527;28;20192;-48
2024/03/10 04:36:29;;;;;;;8.13;5.63;;;;;;;;;;5006127;28;20238;-47
2024/03/10 04:38:59;;;;;;;10.00;6.25;;;;;;;;;;5011754;28;20892;-47
2024/03/10 04:41:25;;;;;;;10.15;6.57;;;;;;;;;;5008994;28;20466;-47
2024/03/10 04:43:51;;;;;;;11.07;6.47;;;;;;;;;;5007380;28;20208;-47
2024/03/10 04:46:20;;;;;;;9.32;6.07;;;;;;;;;;5013148;28;20270;-47
2024/03/10 04:48:46;;;;;;;8.60;5.95;;;;;;;;;;5012708;28;20448;-47
2024/03/10 04:51:13;;;;;;;10.20;6.45;;;;;;;;;;5014894;28;20193;-47
2024/03/10 04:53:39;;;;;;;10.15;6.68;;;;;;;;;;5008356;28;20185;-47
2024/03/10 04:56:05;;;;;;;11.57;6.80;;;;;;;;;;5006681;28;20189;-47
2024/03/10 04:58:31;;;;;;;9.35;6.38;;;;;;;;;;5007680;28;20192;-47
2024/03/10 05:00:57;;;;;;;9.73;6.18;;;;;;;;;;5011058;28;20197;-47
2024/03/10 05:03:22;;;;;;;10.50;6.95;;;;;;;;;;5003530;28;20208;-47
2024/03/10 05:05:48;;;;;;;9.00;6.38;;;;;;;;;;5012417;28;20189;-48
2024/03/10 05:08:15;;;;;;;8.50;5.78;;;;;;;;;;5008395;28;20262;-48
2024/03/10 05:10:41;;;;;;;9.70;6.57;;;;;;;;;;5009462;28;20188;-48
2024/03/10 05:13:06;;;;;;;11.98;6.80;;;;;;;;;;5011435;28;20246;-47
2024/03/10 05:15:32;;;;;;;11.43;7.03;;;;;;;;;;5006518;28;20187;-48
2024/03/10 05:17:59;;;;;;;9.23;6.28;;;;;;;;;;5002323;28;20177;-47
2024/03/10 05:20:25;;;;;;;9.93;6.63;;;;;;;;;;5013124;28;20223;-48
2024/03/10 05:22:55;;;;;;;11.93;6.28;;;;;;;;;;5017906;28;20177;-48
2024/03/10 05:25:21;;;;;;;9.70;6.15;;;;;;;;;;5008698;28;20188;-47
2024/03/10 05:27:49;;;;;;;11.52;6.47;;;;;;;;;;5004148;28;20196;-47
2024/03/10 05:30:16;;;;;;;12.95;7.70;;;;;;;;;;5011610;28;20185;-47
2024/03/10 05:32:41;;;;;;;9.23;5.65;;;;;;;;;;5003081;28;20185;-48
2024/03/10 05:35:09;;;;;;;15.07;7.53;;;;;;;;;;5011783;28;20267;-55
2024/03/10 05:38:36;;;;;;;9.27;6.45;;;;;;;;;;5117929;27;20639;-50
2024/03/10 05:41:02;;;;;;;9.73;6.85;;;;;;;;;;5086629;28;20641;-47
2024/03/10 05:43:28;;;;;;;14.40;6.47;;;;;;;;;;5085473;28;20181;-48
2024/03/10 05:45:55;;;;;;;10.27;6.13;;;;;;;;;;5084238;28;20201;-50
2024/03/10 05:48:21;;;;;;;8.48;6.32;;;;;;;;;;5088028;28;20288;-43
2024/03/10 05:50:47;;;;;;;10.63;6.35;;;;;;;;;;5089564;28;20687;-46
2024/03/10 05:53:13;;;;;;;10.38;6.80;;;;;;;;;;5084280;28;20182;-46
2024/03/10 05:55:39;;;;;;;10.52;6.25;;;;;;;;;;5087418;28;20178;-47
2024/03/10 05:58:05;;;;;;;12.38;7.00;;;;;;;;;;5095330;28;20204;-43
2024/03/10 06:00:31;;;;;;;9.73;6.30;;;;;;;;;;5091641;28;20177;-46
2024/03/10 06:02:57;;;;;;;12.13;6.35;;;;;;;;;;5080467;28;20191;-50
2024/03/10 06:05:23;;;;;;;11.95;6.47;;;;;;;;;;5088670;28;20508;-43
2024/03/10 06:07:49;;;;;;;12.98;7.20;;;;;;;;;;5090780;28;20237;-45
2024/03/10 06:10:16;;;;;;;15.18;7.35;;;;;;;;;;5093652;28;20173;-47
2024/03/10 06:12:42;;;;;;;10.48;7.40;;;;;;;;;;5082849;28;20182;-42
2024/03/10 06:15:16;;;;;;;11.20;6.70;;;;;;;;;;5079159;28;20209;-47
2024/03/10 06:17:50;;;;;;;14.68;7.80;;;;;;;;;;5082039;28;20198;-46
2024/03/10 06:25:45;;;;;;;10.98;6.80;;;;;;;;;;5085467;28;20265;-45
2024/03/10 06:28:11;;;;;;;13.23;6.55;;;;;;;;;;5094674;28;20518;-51
2024/03/10 06:30:37;;;;;;;12.30;7.00;;;;;;;;;;5085791;28;20188;-49
2024/03/10 06:33:03;;;;;;;11.02;7.43;;;;;;;;;;5083674;28;20301;-49
2024/03/10 06:35:29;;;;;;;9.38;6.80;;;;;;;;;;5077418;28;20527;-48
2024/03/10 06:37:56;;;;;;;10.13;6.90;;;;;;;;;;5079070;28;20491;-59
2024/03/10 06:40:21;;;;;;;10.32;6.97;;;;;;;;;;5083178;28;21077;-45
2024/03/10 06:42:47;;;;;;;10.68;6.68;;;;;;;;;;5078874;28;20186;-45
2024/03/10 06:45:13;;;;;;;8.90;6.68;;;;;;;;;;5076551;28;20198;-46
2024/03/10 06:47:41;;;;;;;13.02;6.57;;;;;;;;;;5084300;28;20479;-51
2024/03/10 06:50:07;;;;;;;11.13;6.90;;;;;;;;;;5074434;28;20597;-51
2024/03/10 06:52:33;;;;;;;12.20;7.00;;;;;;;;;;5071134;28;20189;-51
2024/03/10 06:55:00;;;;;;;11.77;7.50;;;;;;;;;;5073036;28;20569;-50
2024/03/10 06:57:27;;;;;;;12.70;8.52;;;;;;;;;;5074507;28;20209;-50
2024/03/10 06:59:53;;;;;;;16.52;9.27;;;;;;;;;;5074481;28;20288;-49
2024/03/10 07:02:22;;;;;;;34.58;10.15;;;;;;;;;;5065421;28;20228;-50
2024/03/10 07:04:48;;;;;;;12.98;8.10;;;;;;;;;;5073929;28;20178;-50
2024/03/10 07:07:14;;;;;;;26.60;9.13;;;;;;;;;;5073142;28;20186;-50
2024/03/10 07:09:41;;;;;;;11.73;7.97;;;;;;;;;;5065539;28;20297;-50
2024/03/10 07:12:07;;;;;;;14.05;7.90;;;;;;;;;;5074168;28;20186;-50
2024/03/10 07:14:33;;;;;;;15.50;8.00;;;;;;;;;;5071413;28;20548;-50
2024/03/10 07:17:01;;;;;;;15.88;8.98;;;;;;;;;;5072275;28;20477;-50
2024/03/10 07:19:27;;;;;;;27.30;11.60;;;;;;;;;;5065586;28;20251;-50
2024/03/10 07:21:53;;;;;;;11.52;7.30;;;;;;;;;;5065963;28;20198;-50
2024/03/10 07:24:19;;;;;;;29.40;10.57;;;;;;;;;;5061578;28;20174;-50
2024/03/10 07:26:44;;;;;;;29.00;10.20;;;;;;;;;;5057955;28;20558;-49
2024/03/10 07:29:11;;;;;;;39.45;12.05;;;;;;;;;;5058671;28;20255;-50
2024/03/10 07:31:37;;;;;;;17.25;8.77;;;;;;;;;;5071312;28;20190;-49
2024/03/10 07:34:03;;;;;;;13.45;7.50;;;;;;;;;;5065183;28;20187;-49
2024/03/10 07:36:29;;;;;;;14.02;8.00;;;;;;;;;;5065255;28;20212;-49
2024/03/10 07:38:56;;;;;;;13.95;7.43;;;;;;;;;;5067311;28;20240;-48
2024/03/10 07:41:22;;;;;;;14.60;8.60;;;;;;;;;;5062010;28;20185;-49
2024/03/10 07:43:48;;;;;;;13.43;7.85;;;;;;;;;;5058245;28;20183;-48
2024/03/10 07:46:14;;;;;;;19.27;8.88;;;;;;;;;;5066426;28;20249;-49
2024/03/10 07:48:40;;;;;;;19.80;8.88;;;;;;;;;;5071357;28;20190;-49
2024/03/10 07:51:06;;;;;;;18.70;8.55;;;;;;;;;;5064160;28;20182;-50
2024/03/10 07:53:33;;;;;;;18.23;8.07;;;;;;;;;;5062044;28;21981;-50
2024/03/10 07:55:59;;;;;;;16.75;8.88;;;;;;;;;;5060164;28;20186;-49
2024/03/10 07:58:28;;;;;;;16.50;8.38;;;;;;;;;;5061825;28;20207;-50
2024/03/10 08:00:54;;;;;;;14.18;8.10;;;;;;;;;;5061168;28;20229;-50
2024/03/10 08:03:20;;;;;;;21.90;8.20;;;;;;;;;;5057875;28;20183;-47
2024/03/10 08:05:46;;;;;;;21.73;8.75;;;;;;;;;;5069829;28;20187;-51
2024/03/10 08:08:12;;;;;;;29.08;9.75;;;;;;;;;;5056363;28;20542;-49
2024/03/10 08:10:38;;;;;;;20.95;9.50;;;;;;;;;;5056566;28;20201;-44
2024/03/10 08:13:04;;;;;;;18.42;9.48;;;;;;;;;;5062001;28;20292;-48
2024/03/10 08:15:30;;;;;;;19.52;9.60;;;;;;;;;;5058435;28;20233;-47
2024/03/10 08:17:56;;;;;;;19.27;9.85;;;;;;;;;;5062950;28;20222;-46
2024/03/10 08:20:24;;;;;;;19.45;9.18;;;;;;;;;;5071214;28;20240;-47
2024/03/10 08:22:51;;;;;;;21.63;10.98;;;;;;;;;;5064324;28;20182;-47
2024/03/10 08:25:18;;;;;;;23.85;10.52;;;;;;;;;;5068949;28;20243;-49
2024/03/10 08:27:45;;;;;;;20.58;11.13;;;;;;;;;;5064950;28;20209;-46
2024/03/10 08:30:11;;;;;;;17.65;9.65;;;;;;;;;;5055079;28;20178;-43
2024/03/10 08:32:38;;;;;;;21.52;10.07;;;;;;;;;;5069445;28;20201;-43
2024/03/10 08:35:08;;;;;;;21.60;10.32;;;;;;;;;;5063716;28;20182;-44
2024/03/10 08:37:35;;;;;;;23.13;10.85;;;;;;;;;;5061598;28;20628;-44
2024/03/10 08:40:09;;;;;;;24.27;11.38;;;;;;;;;;5066226;28;20244;-44
2024/03/10 08:42:36;;;;;;;55.33;13.95;;;;;;;;;;5070288;28;20178;-44
2024/03/10 08:45:02;;;;;;;46.30;12.45;;;;;;;;;;5067882;28;20232;-44
2024/03/10 08:47:28;;;;;;;39.38;11.70;;;;;;;;;;5068163;28;20194;-44
2024/03/10 08:49:54;;;;;;;23.85;10.52;;;;;;;;;;5070124;28;20251;-44
2024/03/10 08:52:20;;;;;;;20.05;10.40;;;;;;;;;;5072668;28;20221;-44
2024/03/10 08:54:46;;;;;;;20.98;10.15;;;;;;;;;;5068380;28;20174;-50
2024/03/10 08:57:12;;;;;;;17.63;10.38;;;;;;;;;;5071512;28;20193;-49
2024/03/10 08:59:38;;;;;;;19.65;10.32;;;;;;;;;;5067647;28;20181;-50
2024/03/10 09:02:04;;;;;;;24.77;10.30;;;;;;;;;;5062580;28;20175;-47
2024/03/10 09:04:30;;;;;;;19.65;9.52;;;;;;;;;;5068588;28;20465;-47
2024/03/10 09:06:56;;;;;;;18.45;8.65;;;;;;;;;;5071854;28;20190;-45
2024/03/10 09:09:22;;;;;;;17.38;9.90;;;;;;;;;;5070781;28;20182;-47
2024/03/10 09:11:49;;;;;;;17.10;8.65;;;;;;;;;;5069532;28;20232;-47
2024/03/10 09:14:15;;;;;;;24.20;10.68;;;;;;;;;;5066295;28;20568;-47
2024/03/10 09:16:43;;;;;;;21.30;10.25;;;;;;;;;;5068110;28;20276;-48
2024/03/10 09:19:09;;;;;;;20.25;9.32;;;;;;;;;;5070850;28;20536;-47
2024/03/10 09:21:36;;;;;;;24.38;9.82;;;;;;;;;;5072842;28;20232;-47
2024/03/10 09:24:02;;;;;;;17.80;8.82;;;;;;;;;;5065238;28;20232;-47
2024/03/10 09:26:28;;;;;;;14.10;8.25;;;;;;;;;;5071813;28;20189;-47
2024/03/10 09:28:55;;;;;;;18.27;8.75;;;;;;;;;;5068012;28;20282;-47
2024/03/10 09:31:22;;;;;;;28.50;11.85;;;;;;;;;;5060827;28;20187;-47
2024/03/10 09:33:49;;;;;;;18.35;7.93;;;;;;;;;;5068736;28;20178;-47
2024/03/10 09:36:16;;;;;;;20.65;9.45;;;;;;;;;;5064942;28;20222;-47
2024/03/10 09:38:45;;;;;;;25.05;10.38;;;;;;;;;;5069531;28;20206;-47
2024/03/10 09:41:12;;;;;;;21.23;9.50;;;;;;;;;;5066726;28;20183;-47
2024/03/10 09:43:41;;;;;;;16.60;8.82;;;;;;;;;;5069910;28;20261;-47
2024/03/10 09:46:13;;;;;;;23.30;9.35;;;;;;;;;;5066495;28;20182;-47
2024/03/10 09:48:42;;;;;;;24.95;9.10;;;;;;;;;;5067924;28;20178;-47
2024/03/10 09:51:11;;;;;;;15.75;7.82;;;;;;;;;;5069500;28;20175;-47
2024/03/10 09:53:37;;;;;;;20.13;8.60;;;;;;;;;;5068083;28;20188;-47
2024/03/10 09:56:03;;;;;;;22.85;8.98;;;;;;;;;;5066637;28;20469;-47
2024/03/10 09:58:39;;;;;;;23.55;8.88;;;;;;;;;;5068354;28;20234;-48
2024/03/10 10:01:11;;;;;;;34.28;10.10;;;;;;;;;;5065584;28;20180;-47
2024/03/10 10:03:38;;;;;;;23.23;9.60;;;;;;;;;;5068033;28;20561;-46
2024/03/10 10:06:04;;;;;;;20.33;8.50;;;;;;;;;;5068629;28;20178;-47
2024/03/10 10:08:30;;;;;;;23.88;8.75;;;;;;;;;;5070895;28;20288;-47
2024/03/10 10:10:59;;;;;;;23.27;9.30;;;;;;;;;;5065299;28;20251;-47
2024/03/10 10:13:29;;;;;;;17.13;7.80;;;;;;;;;;5070532;28;20181;-47
2024/03/10 10:15:55;;;;;;;16.65;7.13;;;;;;;;;;5068277;28;20182;-47
2024/03/10 10:18:22;;;;;;;15.50;7.78;;;;;;;;;;5068154;28;20213;-47
2024/03/10 10:20:50;;;;;;;19.17;7.93;;;;;;;;;;5069932;28;20246;-47
2024/03/10 10:23:16;;;;;;;19.35;8.98;;;;;;;;;;5065275;28;20179;-47
2024/03/10 10:25:45;;;;;;;16.98;7.72;;;;;;;;;;5073857;28;20183;-47
2024/03/10 10:28:14;;;;;;;16.83;8.00;;;;;;;;;;5074351;28;20464;-48
2024/03/10 10:30:41;;;;;;;15.55;7.25;;;;;;;;;;5076257;28;20215;-48
2024/03/10 10:33:08;;;;;;;17.65;7.50;;;;;;;;;;5072886;28;20189;-47
2024/03/10 10:35:39;;;;;;;21.70;7.85;;;;;;;;;;5070180;28;20179;-47
2024/03/10 10:38:11;;;;;;;30.63;9.80;;;;;;;;;;5072062;28;20206;-47
2024/03/10 10:40:53;;;;;;;19.33;7.20;;;;;;;;;;5069831;28;20174;-47
2024/03/10 10:43:21;;;;;;;13.55;7.43;;;;;;;;;;5070782;28;20206;-47
2024/03/10 10:45:48;;;;;;;19.60;7.30;;;;;;;;;;5067485;28;20212;-47
2024/03/10 10:48:14;;;;;;;26.33;8.48;;;;;;;;;;5062921;28;20187;-47
2024/03/10 10:50:43;;;;;;;21.83;7.57;;;;;;;;;;5086964;28;20182;-47
2024/03/10 10:53:11;;;;;;;26.60;7.53;;;;;;;;;;5068187;28;20233;-47
2024/03/10 10:55:39;;;;;;;11.77;6.30;;;;;;;;;;5070947;28;20213;-47
2024/03/10 10:58:06;;;;;;;17.83;7.00;;;;;;;;;;5076360;28;20209;-47
2024/03/10 11:00:32;;;;;;;15.75;6.40;;;;;;;;;;5071565;28;20191;-47
2024/03/10 11:03:09;;;;;;;19.70;7.75;;;;;;;;;;5074367;28;20187;-47
2024/03/10 11:05:36;;;;;;;12.25;6.10;;;;;;;;;;5070647;28;20174;-47
2024/03/10 11:08:04;;;;;;;13.35;7.28;;;;;;;;;;5070134;28;20183;-47
2024/03/10 11:10:39;;;;;;;9.68;6.43;;;;;;;;;;5070528;28;20182;-47
2024/03/10 11:13:09;;;;;;;15.18;7.57;;;;;;;;;;5072742;28;20200;-46
2024/03/10 11:15:36;;;;;;;13.68;7.07;;;;;;;;;;5071051;28;20186;-47
2024/03/10 11:18:20;;;;;;;15.25;7.80;;;;;;;;;;5071818;28;20584;-47
2024/03/10 11:20:46;;;;;;;14.20;7.22;;;;;;;;;;5070543;28;20300;-47
2024/03/10 11:23:12;;;;;;;12.52;6.40;;;;;;;;;;5072128;28;20261;-47
2024/03/10 11:25:39;;;;;;;11.40;6.95;;;;;;;;;;5070279;28;20269;-47
2024/03/10 11:28:06;;;;;;;16.38;7.32;;;;;;;;;;5072900;28;20210;-47
2024/03/10 11:30:41;;;;;;;11.70;5.93;;;;;;;;;;5071490;28;20182;-47
2024/03/10 11:33:07;;;;;;;13.45;6.55;;;;;;;;;;5067455;28;20192;-47
2024/03/10 11:35:35;;;;;;;16.88;7.00;;;;;;;;;;5066412;28;20210;-47
2024/03/10 11:38:04;;;;;;;17.98;7.43;;;;;;;;;;5072615;28;20283;-47
2024/03/10 11:40:30;;;;;;;12.95;6.18;;;;;;;;;;5065361;28;20412;-48
2024/03/10 11:43:01;;;;;;;19.10;7.70;;;;;;;;;;5073353;28;20171;-47
2024/03/10 11:45:27;;;;;;;11.80;5.78;;;;;;;;;;5069872;28;20258;-47
2024/03/10 11:47:54;;;;;;;28.02;8.98;;;;;;;;;;5063546;28;20272;-47
2024/03/10 11:50:20;;;;;;;12.50;5.90;;;;;;;;;;5082554;28;20217;-47
2024/03/10 11:52:46;;;;;;;10.65;6.18;;;;;;;;;;5066791;28;20588;-47
2024/03/10 11:55:14;;;;;;;13.68;6.68;;;;;;;;;;5070360;28;20193;-47
2024/03/10 11:57:41;;;;;;;9.35;5.22;;;;;;;;;;5074271;28;20611;-47
2024/03/10 12:00:09;;;;;;;12.18;5.35;;;;;;;;;;5071801;28;20340;-47
2024/03/10 12:02:35;;;;;;;12.68;5.47;;;;;;;;;;5066296;28;20228;-47
2024/03/10 12:05:05;;;;;;;16.67;6.78;;;;;;;;;;5070876;28;20175;-47
2024/03/10 12:07:32;;;;;;;13.48;5.95;;;;;;;;;;5072317;28;20263;-47
2024/03/10 12:09:58;;;;;;;27.70;8.95;;;;;;;;;;5066277;28;20818;-47
2024/03/10 12:12:32;;;;;;;17.67;6.03;;;;;;;;;;5070842;28;20193;-47
2024/03/10 12:14:58;;;;;;;26.25;7.22;;;;;;;;;;5070240;28;20188;-47
2024/03/10 12:17:24;;;;;;;16.35;5.72;;;;;;;;;;5076752;28;20202;-47
2024/03/10 12:19:50;;;;;;;32.95;7.53;;;;;;;;;;5065600;28;20781;-47
2024/03/10 12:22:18;;;;;;;24.52;6.53;;;;;;;;;;5064966;28;20186;-46
2024/03/10 12:24:44;;;;;;;56.05;10.00;;;;;;;;;;5069825;28;20240;-47
2024/03/10 12:27:10;;;;;;;24.75;8.82;;;;;;;;;;5063158;28;20236;-47
2024/03/10 12:29:46;;;;;;;13.68;6.05;;;;;;;;;;5072711;28;20206;-47
2024/03/10 12:32:15;;;;;;;22.75;6.13;;;;;;;;;;5067458;28;20205;-47
2024/03/10 12:34:41;;;;;;;22.55;7.22;;;;;;;;;;5073047;28;20190;-47
2024/03/10 12:37:07;;;;;;;39.45;8.45;;;;;;;;;;5069786;28;20263;-47
2024/03/10 12:39:33;;;;;;;23.45;6.63;;;;;;;;;;5068005;28;20442;-46
2024/03/10 12:41:59;;;;;;;23.75;7.68;;;;;;;;;;5068174;28;20187;-47
2024/03/10 12:44:25;;;;;;;15.25;6.35;;;;;;;;;;5071463;28;20189;-47
2024/03/10 12:46:51;;;;;;;15.65;6.65;;;;;;;;;;5067202;28;20186;-47
2024/03/10 12:49:17;;;;;;;25.27;8.68;;;;;;;;;;5069080;28;20185;-47
2024/03/10 12:51:43;;;;;;;18.60;7.63;;;;;;;;;;5067421;28;20183;-47
2024/03/10 12:54:09;;;;;;;13.75;5.75;;;;;;;;;;5066214;28;20214;-47
2024/03/10 12:56:35;;;;;;;9.13;5.20;;;;;;;;;;5069898;28;20225;-47
2024/03/10 12:59:03;;;;;;;10.98;5.57;;;;;;;;;;5063234;28;20193;-47
2024/03/10 13:01:34;;;;;;;13.65;6.18;;;;;;;;;;5070486;28;20253;-46
2024/03/10 13:04:00;;;;;;;14.55;6.47;;;;;;;;;;5069017;28;20621;-46
2024/03/10 13:06:26;;;;;;;13.50;6.40;;;;;;;;;;5070045;28;20179;-46
2024/03/10 13:08:53;;;;;;;13.02;5.93;;;;;;;;;;5069617;28;20223;-46
2024/03/10 13:11:26;;;;;;;12.70;6.35;;;;;;;;;;5068394;28;20193;-47
2024/03/10 13:13:52;;;;;;;24.48;7.28;;;;;;;;;;5060859;28;20213;-46
2024/03/10 13:16:18;;;;;;;17.70;6.57;;;;;;;;;;5069979;28;20190;-47
2024/03/10 13:18:44;;;;;;;22.75;7.78;;;;;;;;;;5076318;28;20198;-46
2024/03/10 13:21:10;;;;;;;19.23;6.53;;;;;;;;;;5067525;28;20182;-46
2024/03/10 13:23:35;;;;;;;18.48;7.40;;;;;;;;;;5064319;28;20197;-46
2024/03/10 13:26:01;;;;;;;13.38;6.70;;;;;;;;;;5072087;28;20214;-47
2024/03/10 13:28:27;;;;;;;13.00;6.57;;;;;;;;;;5066072;28;20281;-46
2024/03/10 13:30:54;;;;;;;17.95;7.13;;;;;;;;;;5068025;28;20182;-46
2024/03/10 13:33:20;;;;;;;14.50;6.35;;;;;;;;;;5070417;28;20189;-46
2024/03/10 13:35:46;;;;;;;18.02;7.40;;;;;;;;;;5066670;28;20186;-47
2024/03/10 13:38:12;;;;;;;14.45;6.22;;;;;;;;;;5063355;28;20217;-47
2024/03/10 13:40:38;;;;;;;13.25;6.22;;;;;;;;;;5069219;28;20178;-47
2024/03/10 13:43:05;;;;;;;18.00;6.47;;;;;;;;;;5071701;28;20189;-47
2024/03/10 13:45:31;;;;;;;9.73;5.05;;;;;;;;;;5073409;28;20194;-47
2024/03/10 13:47:58;;;;;;;15.68;6.32;;;;;;;;;;5064088;28;20182;-47
2024/03/10 13:50:24;;;;;;;13.73;5.68;;;;;;;;;;5062129;28;20266;-47
2024/03/10 13:52:50;;;;;;;10.27;5.47;;;;;;;;;;5061924;28;20337;-46
2024/03/10 13:55:16;;;;;;;15.82;5.70;;;;;;;;;;5071427;28;20183;-47
2024/03/10 13:57:45;;;;;;;12.15;5.53;;;;;;;;;;5067093;28;20229;-47
2024/03/10 14:00:13;;;;;;;20.85;8.30;;;;;;;;;;5065098;28;20189;-47
2024/03/10 14:02:41;;;;;;;11.52;5.50;;;;;;;;;;5072176;28;20276;-46
2024/03/10 14:05:07;;;;;;;16.63;6.30;;;;;;;;;;5069651;28;20193;-47
2024/03/10 14:07:33;;;;;;;9.63;4.95;;;;;;;;;;5078638;28;20190;-47
2024/03/10 14:09:59;;;;;;;8.40;5.57;;;;;;;;;;5079706;28;20625;-47
2024/03/10 14:12:25;;;;;;;12.82;6.13;;;;;;;;;;5074412;28;20175;-47
2024/03/10 14:14:51;;;;;;;8.68;5.15;;;;;;;;;;5085462;28;20193;-47
2024/03/10 14:17:19;;;;;;;10.27;5.20;;;;;;;;;;5065678;28;20202;-47
2024/03/10 14:19:45;;;;;;;7.45;5.22;;;;;;;;;;5072217;28;20198;-47
2024/03/10 14:22:11;;;;;;;16.35;7.22;;;;;;;;;;5070830;28;20214;-47
2024/03/10 14:24:38;;;;;;;7.80;4.38;;;;;;;;;;5074922;28;20185;-47
2024/03/10 14:27:04;;;;;;;16.08;6.70;;;;;;;;;;5073649;28;20186;-47
2024/03/10 14:29:30;;;;;;;9.93;5.25;;;;;;;;;;5073289;28;20202;-47
2024/03/10 14:31:56;;;;;;;13.20;5.80;;;;;;;;;;5072955;28;20588;-46
2024/03/10 14:34:23;;;;;;;13.07;5.63;;;;;;;;;;5070503;28;20759;-47
2024/03/10 14:36:50;;;;;;;10.68;5.00;;;;;;;;;;5073368;28;20507;-47
2024/03/10 14:39:16;;;;;;;30.20;8.75;;;;;;;;;;5063029;28;20175;-47
2024/03/10 14:41:42;;;;;;;8.63;4.85;;;;;;;;;;5077051;28;20190;-47
2024/03/10 14:44:09;;;;;;;19.80;7.00;;;;;;;;;;5069360;28;20187;-46
2024/03/10 14:46:35;;;;;;;12.15;5.45;;;;;;;;;;5070457;28;20269;-46
2024/03/10 14:49:04;;;;;;;14.55;5.43;;;;;;;;;;5072267;28;20520;-48
2024/03/10 14:51:31;;;;;;;11.63;4.85;;;;;;;;;;5074300;28;20183;-47